Time;durP1;ratioP1;P1;durP2;ratioP2;P2;SDS_P1;SDS_P2;PMS_P1;PMS_P2;Temp;Humidity;BMP_temperature;BMP_pressure;BME280_temperature;BME280_humidity;BME280_pressure;Samples;Min_cycle;Max_cycle;Signal;HPM_P1;HPM_P2
2024/02/23 00:02:15;;;;;;;3.40;1.27;;;9.70;99.90;;;;;;5014099;28;20431;-66
2024/02/23 00:04:41;;;;;;;2.90;1.83;;;9.60;99.90;;;;;;5010128;28;20714;-65
2024/02/23 00:07:07;;;;;;;6.47;2.00;;;9.60;99.90;;;;;;5012413;28;20188;-66
2024/02/23 00:09:33;;;;;;;5.40;1.63;;;9.50;99.90;;;;;;5015684;28;20955;-65
2024/02/23 00:11:59;;;;;;;3.73;1.97;;;9.60;99.90;;;;;;5030895;28;20424;-66
2024/02/23 00:14:24;;;;;;;3.40;1.50;;;9.50;99.90;;;;;;5013243;28;20749;-66
2024/02/23 00:16:50;;;;;;;4.23;1.43;;;9.50;99.90;;;;;;5016211;28;20194;-66
2024/02/23 00:19:18;;;;;;;7.10;1.90;;;9.40;99.90;;;;;;5014150;28;20209;-66
2024/02/23 00:21:47;;;;;;;3.20;1.53;;;9.40;99.90;;;;;;5014533;28;20256;-65
2024/02/23 00:24:13;;;;;;;4.13;1.40;;;9.40;99.90;;;;;;5012397;28;20451;-65
2024/02/23 00:26:38;;;;;;;3.30;1.43;;;9.40;99.90;;;;;;5014241;28;20511;-65
2024/02/23 00:29:04;;;;;;;3.47;1.50;;;9.30;99.90;;;;;;5010013;28;20182;-65
2024/02/23 00:31:30;;;;;;;11.43;1.50;;;9.30;99.90;;;;;;5009650;28;20189;-66
2024/02/23 00:33:56;;;;;;;4.00;2.10;;;9.30;99.90;;;;;;5012549;28;20670;-66
2024/02/23 00:36:21;;;;;;;3.03;1.43;;;9.30;99.90;;;;;;5019050;28;20187;-66
2024/02/23 00:38:47;;;;;;;2.63;1.30;;;9.30;99.90;;;;;;5010801;28;20500;-66
2024/02/23 00:41:12;;;;;;;4.53;1.30;;;9.40;99.90;;;;;;5018016;28;20184;-66
2024/02/23 00:43:41;;;;;;;2.07;1.10;;;9.40;99.90;;;;;;5020117;28;20303;-66
2024/02/23 00:46:08;;;;;;;4.37;2.03;;;9.40;99.90;;;;;;5015428;28;20176;-66
2024/02/23 00:48:34;;;;;;;4.50;1.40;;;9.40;99.90;;;;;;5013998;28;20429;-66
2024/02/23 00:51:02;;;;;;;5.73;1.63;;;9.30;99.90;;;;;;5018058;28;20420;-66
2024/02/23 00:53:28;;;;;;;2.93;1.20;;;9.40;99.90;;;;;;5016268;28;20960;-66
2024/02/23 00:55:54;;;;;;;5.00;1.60;;;9.30;99.90;;;;;;5013418;28;20439;-66
2024/02/23 00:58:20;;;;;;;6.73;2.40;;;9.30;99.90;;;;;;5015657;28;20442;-67
2024/02/23 01:00:45;;;;;;;6.23;1.77;;;9.20;99.90;;;;;;5013080;28;20268;-66
2024/02/23 01:03:11;;;;;;;3.90;2.03;;;9.20;99.90;;;;;;5015467;28;20192;-66
2024/02/23 01:05:38;;;;;;;6.40;1.83;;;9.10;99.90;;;;;;5018564;28;20673;-66
2024/02/23 01:08:04;;;;;;;6.23;3.70;;;9.00;99.90;;;;;;5011885;28;20276;-66
2024/02/23 01:10:29;;;;;;;3.27;1.43;;;9.00;99.90;;;;;;5016442;28;20864;-66
2024/02/23 01:12:55;;;;;;;3.00;1.40;;;9.00;99.90;;;;;;5015131;28;20420;-66
2024/02/23 01:15:20;;;;;;;6.10;1.50;;;9.00;99.90;;;;;;5016622;28;20251;-66
2024/02/23 01:17:46;;;;;;;3.33;1.50;;;9.10;99.90;;;;;;5012987;28;20181;-66
2024/02/23 01:20:12;;;;;;;5.17;2.00;;;9.10;99.90;;;;;;5012128;28;20216;-66
2024/02/23 01:22:38;;;;;;;4.23;1.70;;;9.00;99.90;;;;;;5014467;28;20185;-66
2024/02/23 01:25:04;;;;;;;2.90;1.70;;;9.00;99.90;;;;;;5012360;28;20209;-66
2024/02/23 01:27:29;;;;;;;3.80;1.63;;;9.10;99.90;;;;;;5013692;28;20436;-66
2024/02/23 01:29:55;;;;;;;8.43;1.47;;;9.10;99.90;;;;;;5011643;28;20497;-66
2024/02/23 01:32:21;;;;;;;3.70;1.40;;;9.10;99.90;;;;;;5017682;28;20774;-66
2024/02/23 01:34:46;;;;;;;4.23;1.90;;;9.10;99.90;;;;;;5013376;28;20201;-66
2024/02/23 01:37:12;;;;;;;5.10;1.80;;;9.10;99.90;;;;;;5015948;28;20204;-66
2024/02/23 01:39:37;;;;;;;3.03;1.40;;;9.10;99.90;;;;;;5015833;28;21710;-66
2024/02/23 01:42:03;;;;;;;2.93;1.50;;;9.10;99.90;;;;;;5009709;28;20192;-66
2024/02/23 01:44:29;;;;;;;3.97;1.50;;;9.10;99.90;;;;;;5015264;28;20208;-66
2024/02/23 01:46:54;;;;;;;4.50;1.63;;;9.10;99.90;;;;;;5016366;28;20207;-66
2024/02/23 01:49:20;;;;;;;3.97;1.93;;;9.00;99.90;;;;;;5013047;28;20531;-66
2024/02/23 01:51:46;;;;;;;4.63;1.40;;;9.00;99.90;;;;;;5016694;28;20217;-66
2024/02/23 01:54:12;;;;;;;2.77;1.60;;;8.90;99.90;;;;;;5017573;28;20291;-66
2024/02/23 01:56:39;;;;;;;5.20;1.60;;;9.00;99.90;;;;;;5020261;28;20211;-66
2024/02/23 01:59:05;;;;;;;5.70;1.33;;;8.90;99.90;;;;;;5012653;28;20236;-66
2024/02/23 02:01:31;;;;;;;3.13;1.67;;;9.00;99.90;;;;;;5014086;28;20840;-66
2024/02/23 02:03:58;;;;;;;3.67;1.80;;;8.90;99.90;;;;;;5012917;28;20517;-66
2024/02/23 02:06:24;;;;;;;3.03;1.63;;;8.90;99.90;;;;;;5015315;28;20423;-66
2024/02/23 02:08:50;;;;;;;3.20;1.70;;;8.90;99.90;;;;;;5013369;28;20431;-66
2024/02/23 02:11:16;;;;;;;3.60;1.53;;;8.90;99.90;;;;;;5015664;28;20501;-66
2024/02/23 02:13:41;;;;;;;5.40;2.27;;;8.90;99.90;;;;;;5013327;28;20450;-66
2024/02/23 02:16:07;;;;;;;2.30;1.40;;;9.00;99.90;;;;;;5014225;28;20868;-66
2024/02/23 02:18:33;;;;;;;3.80;1.73;;;9.00;99.90;;;;;;5016165;28;20212;-64
2024/02/23 02:20:58;;;;;;;2.47;1.37;;;9.00;99.90;;;;;;5011315;28;20191;-65
2024/02/23 02:23:26;;;;;;;4.00;1.50;;;9.00;99.90;;;;;;5013339;28;20596;-65
2024/02/23 02:25:56;;;;;;;2.60;1.43;;;8.90;99.90;;;;;;5010356;28;20185;-66
2024/02/23 02:28:22;;;;;;;3.30;1.30;;;8.90;99.90;;;;;;5012807;28;20432;-66
2024/02/23 02:30:49;;;;;;;4.80;1.50;;;8.90;99.90;;;;;;5014585;28;20444;-66
2024/02/23 02:33:15;;;;;;;2.30;1.30;;;9.00;99.90;;;;;;5012788;28;20459;-65
2024/02/23 02:35:40;;;;;;;2.13;1.40;;;8.90;99.90;;;;;;5012112;28;20972;-65
2024/02/23 02:38:06;;;;;;;2.47;1.30;;;8.90;99.90;;;;;;5011018;28;20440;-66
2024/02/23 02:40:32;;;;;;;4.00;1.30;;;8.90;99.90;;;;;;5012972;28;20592;-66
2024/02/23 02:42:58;;;;;;;2.83;1.80;;;8.80;99.90;;;;;;5009681;28;20603;-66
2024/02/23 02:45:24;;;;;;;3.27;1.60;;;8.70;99.90;;;;;;5011576;28;20292;-66
2024/02/23 02:47:49;;;;;;;7.03;3.37;;;8.80;99.90;;;;;;5013509;28;21009;-66
2024/02/23 02:50:15;;;;;;;5.63;1.30;;;8.80;99.90;;;;;;5008164;28;20184;-66
2024/02/23 02:52:41;;;;;;;3.30;1.40;;;8.80;99.90;;;;;;5012679;28;20196;-66
2024/02/23 02:55:07;;;;;;;13.83;1.80;;;8.60;99.90;;;;;;5011705;28;20454;-66
2024/02/23 02:57:33;;;;;;;3.87;1.43;;;8.70;99.90;;;;;;5012044;28;20180;-66
2024/02/23 02:59:59;;;;;;;5.50;1.40;;;8.70;99.90;;;;;;5007987;28;20498;-66
2024/02/23 03:02:24;;;;;;;2.60;1.10;;;8.70;99.90;;;;;;5011774;28;20647;-65
2024/02/23 03:04:50;;;;;;;3.17;1.20;;;8.70;99.90;;;;;;5015458;28;20714;-66
2024/02/23 03:07:16;;;;;;;2.83;1.37;;;8.80;99.90;;;;;;5007978;28;20200;-66
2024/02/23 03:09:42;;;;;;;2.47;1.30;;;8.80;99.90;;;;;;5016775;28;20438;-66
2024/02/23 03:12:08;;;;;;;3.80;1.40;;;8.80;99.90;;;;;;5010985;28;20453;-65
2024/02/23 03:14:34;;;;;;;2.10;1.40;;;8.70;99.90;;;;;;5012701;28;20343;-65
2024/02/23 03:17:00;;;;;;;3.60;1.70;;;8.70;99.90;;;;;;5009798;28;20510;-65
2024/02/23 03:19:25;;;;;;;4.27;1.70;;;8.60;99.90;;;;;;5012286;28;20207;-65
2024/02/23 03:21:51;;;;;;;5.10;1.70;;;8.60;99.90;;;;;;5015373;28;20442;-65
2024/02/23 03:24:17;;;;;;;5.30;1.47;;;8.60;99.90;;;;;;5015360;28;20212;-65
2024/02/23 03:26:43;;;;;;;3.13;1.50;;;8.60;99.90;;;;;;5012363;28;20921;-66
2024/02/23 03:29:09;;;;;;;3.23;1.30;;;8.60;99.90;;;;;;5009596;28;20270;-65
2024/02/23 03:31:35;;;;;;;5.30;2.00;;;8.50;99.90;;;;;;5015881;28;20666;-66
2024/02/23 03:34:02;;;;;;;2.10;1.43;;;8.50;99.90;;;;;;5014099;28;20565;-66
2024/02/23 03:36:28;;;;;;;3.80;1.40;;;8.50;99.90;;;;;;5017289;28;20299;-65
2024/02/23 03:38:53;;;;;;;2.77;1.90;;;8.40;99.90;;;;;;5014780;28;21050;-65
2024/02/23 03:41:19;;;;;;;3.03;1.60;;;8.50;99.90;;;;;;5012345;28;20222;-66
2024/02/23 03:43:44;;;;;;;3.50;1.67;;;8.50;99.90;;;;;;5012125;28;20666;-66
2024/02/23 03:46:11;;;;;;;2.97;1.67;;;8.60;99.90;;;;;;5008633;28;20174;-65
2024/02/23 03:48:37;;;;;;;3.83;1.40;;;8.60;99.90;;;;;;5013818;28;20680;-65
2024/02/23 03:51:06;;;;;;;3.00;1.87;;;8.60;99.90;;;;;;5018075;28;20480;-66
2024/02/23 03:53:32;;;;;;;4.43;1.40;;;8.70;99.90;;;;;;5019419;28;20260;-66
2024/02/23 03:55:58;;;;;;;3.03;1.50;;;8.70;99.90;;;;;;5014197;28;20550;-66
2024/02/23 03:58:24;;;;;;;3.50;1.93;;;8.70;99.90;;;;;;5012072;28;20181;-65
2024/02/23 04:00:52;;;;;;;3.10;1.37;;;8.80;99.90;;;;;;5016683;28;20416;-65
2024/02/23 04:03:17;;;;;;;3.53;1.40;;;8.70;99.90;;;;;;5015157;28;20181;-65
2024/02/23 04:05:43;;;;;;;7.93;1.63;;;8.80;99.90;;;;;;5022030;28;20443;-65
2024/02/23 04:08:08;;;;;;;3.63;1.83;;;8.70;99.90;;;;;;5012290;28;20181;-66
2024/02/23 04:10:34;;;;;;;4.63;1.40;;;8.80;99.90;;;;;;5017399;28;20659;-66
2024/02/23 04:13:01;;;;;;;4.70;1.73;;;8.70;99.90;;;;;;5020266;28;20189;-66
2024/02/23 04:15:26;;;;;;;3.77;1.57;;;8.80;99.90;;;;;;5009812;28;20216;-66
2024/02/23 04:17:52;;;;;;;3.50;1.67;;;8.80;99.90;;;;;;5020868;28;20794;-66
2024/02/23 04:20:18;;;;;;;3.80;1.50;;;8.70;99.90;;;;;;5019194;28;20228;-66
2024/02/23 04:22:44;;;;;;;3.30;1.30;;;8.80;99.90;;;;;;5014147;28;20223;-65
2024/02/23 04:25:10;;;;;;;4.37;1.30;;;8.70;99.90;;;;;;5014202;28;20208;-65
2024/02/23 04:27:36;;;;;;;8.37;1.63;;;8.70;99.90;;;;;;5016033;28;20922;-66
2024/02/23 04:30:02;;;;;;;4.40;1.40;;;8.70;99.90;;;;;;5016817;28;20563;-66
2024/02/23 04:32:28;;;;;;;3.00;1.40;;;8.80;99.90;;;;;;5017238;28;20188;-66
2024/02/23 04:34:53;;;;;;;2.43;1.30;;;8.60;99.90;;;;;;5015924;28;20458;-65
2024/02/23 04:37:19;;;;;;;2.33;1.50;;;8.60;99.90;;;;;;5016248;28;21460;-66
2024/02/23 04:39:45;;;;;;;6.20;1.43;;;8.60;99.90;;;;;;5018090;28;20212;-66
2024/02/23 04:42:10;;;;;;;2.00;1.33;;;8.50;99.90;;;;;;5013717;28;20211;-66
2024/02/23 04:44:36;;;;;;;2.57;1.40;;;8.50;99.90;;;;;;5015534;28;20209;-66
2024/02/23 04:47:02;;;;;;;4.00;1.60;;;8.50;99.90;;;;;;5011767;28;20185;-66
2024/02/23 04:49:28;;;;;;;4.63;1.63;;;8.50;99.90;;;;;;5019402;28;20187;-66
2024/02/23 04:51:54;;;;;;;4.20;1.77;;;8.50;99.90;;;;;;5022298;28;20433;-66
2024/02/23 04:54:20;;;;;;;3.27;1.60;;;8.40;99.90;;;;;;5011601;28;20459;-66
2024/02/23 04:56:47;;;;;;;5.50;1.93;;;8.40;99.90;;;;;;5017528;28;21035;-66
2024/02/23 04:59:13;;;;;;;4.47;1.90;;;8.40;99.90;;;;;;5017161;28;20673;-66
2024/02/23 05:01:39;;;;;;;3.60;1.80;;;8.40;99.90;;;;;;5020860;28;20424;-66
2024/02/23 05:04:05;;;;;;;3.00;1.70;;;8.40;99.90;;;;;;5016422;28;20446;-66
2024/02/23 05:06:30;;;;;;;3.50;1.60;;;8.40;99.90;;;;;;5019406;28;20238;-66
2024/02/23 05:08:56;;;;;;;4.70;1.57;;;8.50;99.90;;;;;;5018229;28;20189;-66
2024/02/23 05:11:22;;;;;;;3.33;1.47;;;8.40;99.90;;;;;;5020300;28;20185;-66
2024/02/23 05:13:47;;;;;;;2.83;2.27;;;8.40;99.90;;;;;;5011625;28;20192;-66
2024/02/23 05:16:16;;;;;;;4.97;1.93;;;8.40;99.90;;;;;;5016415;28;20203;-66
2024/02/23 05:18:42;;;;;;;2.97;1.57;;;8.30;99.90;;;;;;5013691;28;20187;-66
2024/02/23 05:21:07;;;;;;;3.23;1.60;;;8.40;99.90;;;;;;5018274;28;20415;-66
2024/02/23 05:23:33;;;;;;;4.23;1.83;;;8.40;99.90;;;;;;5012969;28;20185;-65
2024/02/23 05:25:59;;;;;;;2.70;1.50;;;8.40;99.90;;;;;;5017226;28;20478;-66
2024/02/23 05:28:24;;;;;;;2.40;1.40;;;8.40;99.90;;;;;;5010741;28;20231;-65
2024/02/23 05:30:50;;;;;;;3.83;1.80;;;8.30;99.90;;;;;;5020477;28;20208;-65
2024/02/23 05:33:16;;;;;;;3.57;1.80;;;8.30;99.90;;;;;;5015108;28;21760;-66
2024/02/23 05:35:41;;;;;;;4.63;1.60;;;8.20;99.90;;;;;;5012321;28;20422;-66
2024/02/23 05:38:07;;;;;;;3.43;1.80;;;8.20;99.90;;;;;;5012446;28;20556;-65
2024/02/23 05:40:33;;;;;;;3.63;1.97;;;8.10;99.90;;;;;;5017971;28;20286;-65
2024/02/23 05:42:59;;;;;;;2.03;1.40;;;8.10;99.90;;;;;;5013997;28;20184;-65
2024/02/23 05:45:24;;;;;;;2.97;1.50;;;8.10;99.90;;;;;;5013406;28;20192;-65
2024/02/23 05:47:50;;;;;;;9.53;2.20;;;8.00;99.90;;;;;;5016035;28;20892;-64
2024/02/23 05:50:15;;;;;;;2.80;1.60;;;7.90;99.90;;;;;;5012023;28;20676;-64
2024/02/23 05:52:41;;;;;;;2.07;1.33;;;8.00;99.90;;;;;;5012971;28;20259;-65
2024/02/23 05:55:07;;;;;;;2.63;1.50;;;8.00;99.90;;;;;;5007363;28;20271;-65
2024/02/23 05:57:33;;;;;;;3.13;1.50;;;8.00;99.90;;;;;;5013300;28;20185;-65
2024/02/23 05:59:59;;;;;;;9.00;2.60;;;7.90;99.90;;;;;;5016026;28;20872;-65
2024/02/23 06:02:25;;;;;;;5.70;1.70;;;8.00;99.90;;;;;;5017854;28;20718;-66
2024/02/23 06:04:51;;;;;;;3.83;1.63;;;7.90;99.90;;;;;;5009537;28;20243;-65
2024/02/23 06:07:16;;;;;;;2.33;1.50;;;7.80;99.90;;;;;;5011178;28;20466;-65
2024/02/23 06:09:43;;;;;;;6.20;1.90;;;7.80;99.90;;;;;;5006880;28;20567;-65
2024/02/23 06:12:08;;;;;;;3.20;2.30;;;7.80;99.90;;;;;;5011041;28;20181;-65
2024/02/23 06:14:35;;;;;;;2.43;1.50;;;7.80;99.90;;;;;;5011277;28;20510;-65
2024/02/23 06:17:01;;;;;;;1.80;1.40;;;7.80;99.90;;;;;;5013020;28;20428;-65
2024/02/23 06:19:26;;;;;;;5.57;2.00;;;7.80;99.90;;;;;;5009509;28;20459;-65
2024/02/23 06:21:52;;;;;;;2.50;1.87;;;7.80;99.90;;;;;;5010077;28;20489;-66
2024/02/23 06:24:18;;;;;;;6.00;1.80;;;7.80;99.90;;;;;;5016256;28;20211;-64
2024/02/23 06:26:45;;;;;;;4.53;1.60;;;7.80;99.90;;;;;;5015167;28;20544;-65
2024/02/23 06:29:12;;;;;;;4.83;1.90;;;7.70;99.90;;;;;;5012583;28;20542;-64
2024/02/23 06:31:38;;;;;;;4.43;1.60;;;7.70;99.90;;;;;;5018125;28;20461;-65
2024/02/23 06:34:07;;;;;;;6.60;1.70;;;7.70;99.90;;;;;;5015945;28;20487;-65
2024/02/23 06:36:33;;;;;;;3.50;1.80;;;7.80;99.90;;;;;;5015886;28;20200;-65
2024/02/23 06:38:58;;;;;;;5.10;2.17;;;7.80;99.90;;;;;;5016589;28;20495;-66
2024/02/23 06:41:24;;;;;;;3.37;1.70;;;7.90;99.90;;;;;;5017908;28;20173;-65
2024/02/23 06:43:52;;;;;;;4.30;1.73;;;7.90;99.90;;;;;;5013177;28;20202;-65
2024/02/23 06:46:19;;;;;;;4.23;1.70;;;7.90;99.90;;;;;;5012859;28;20201;-65
2024/02/23 06:48:45;;;;;;;2.50;1.80;;;8.00;99.90;;;;;;5019924;28;20435;-65
2024/02/23 06:51:11;;;;;;;5.40;1.80;;;8.00;99.90;;;;;;5015399;28;20516;-65
2024/02/23 06:53:37;;;;;;;7.73;1.43;;;8.00;99.90;;;;;;5017240;28;20931;-65
2024/02/23 06:56:03;;;;;;;3.23;1.63;;;7.90;99.90;;;;;;5016809;28;20176;-65
2024/02/23 06:58:29;;;;;;;3.13;1.50;;;8.00;99.90;;;;;;5012301;28;20419;-65
2024/02/23 07:00:54;;;;;;;4.07;1.80;;;7.90;99.90;;;;;;5017861;28;20252;-65
2024/02/23 07:03:20;;;;;;;5.23;1.60;;;7.90;99.90;;;;;;5013604;28;20625;-65
2024/02/23 07:05:47;;;;;;;8.53;1.80;;;7.90;99.90;;;;;;5016830;28;20674;-65
2024/02/23 07:08:12;;;;;;;2.30;1.60;;;7.90;99.90;;;;;;5015730;28;20184;-65
2024/02/23 07:10:38;;;;;;;2.87;1.80;;;7.90;99.90;;;;;;5010808;28;20427;-65
2024/02/23 07:13:04;;;;;;;5.90;2.03;;;7.90;99.90;;;;;;5014271;28;20187;-65
2024/02/23 07:15:29;;;;;;;3.70;2.20;;;8.00;99.90;;;;;;5011672;28;20238;-65
2024/02/23 07:17:55;;;;;;;6.13;2.13;;;8.00;99.90;;;;;;5019674;28;20792;-66
2024/02/23 07:20:22;;;;;;;3.70;1.70;;;8.00;99.90;;;;;;5012921;28;20209;-66
2024/02/23 07:22:48;;;;;;;6.53;2.20;;;8.00;99.90;;;;;;5007757;28;20181;-65
2024/02/23 07:25:20;;;;;;;4.37;2.20;;;7.90;99.90;;;;;;5017142;28;20465;-66
2024/02/23 07:27:48;;;;;;;3.80;1.53;;;8.00;99.90;;;;;;5025626;28;20291;-66
2024/02/23 07:30:14;;;;;;;2.90;1.67;;;8.00;99.90;;;;;;5019040;28;20431;-66
2024/02/23 07:32:40;;;;;;;7.23;1.97;;;8.00;99.90;;;;;;5018338;28;20453;-65
2024/02/23 07:35:06;;;;;;;5.87;1.80;;;8.00;99.90;;;;;;5015698;28;20455;-66
2024/02/23 07:37:31;;;;;;;4.07;1.90;;;8.00;99.90;;;;;;5012340;28;20275;-67
2024/02/23 07:39:57;;;;;;;4.10;1.60;;;8.10;99.90;;;;;;5008795;28;20322;-67
2024/02/23 07:42:22;;;;;;;3.37;1.63;;;8.00;99.90;;;;;;5018767;28;20183;-67
2024/02/23 07:44:48;;;;;;;2.57;1.70;;;8.00;99.90;;;;;;5016973;28;20205;-68
2024/02/23 07:47:13;;;;;;;2.97;1.77;;;7.90;99.90;;;;;;5016278;28;20177;-67
2024/02/23 07:49:40;;;;;;;4.93;1.90;;;8.00;99.90;;;;;;5015302;28;20209;-67
2024/02/23 07:52:06;;;;;;;3.80;1.70;;;8.10;99.90;;;;;;5022133;28;20578;-67
2024/02/23 07:54:32;;;;;;;9.03;2.37;;;8.20;99.90;;;;;;5017286;28;20449;-66
2024/02/23 07:56:58;;;;;;;6.10;2.37;;;8.20;99.90;;;;;;5019593;28;20442;-66
2024/02/23 07:59:24;;;;;;;3.80;1.77;;;8.20;99.90;;;;;;5022602;28;20200;-66
2024/02/23 08:01:50;;;;;;;3.80;2.00;;;8.30;99.90;;;;;;5020238;28;20861;-66
2024/02/23 08:04:16;;;;;;;3.43;1.83;;;8.20;99.90;;;;;;5028661;28;20490;-66
2024/02/23 08:06:42;;;;;;;4.03;2.07;;;8.20;99.90;;;;;;5022660;28;20196;-66
2024/02/23 08:09:08;;;;;;;2.37;1.90;;;8.30;99.90;;;;;;5028247;28;20207;-67
2024/02/23 08:11:34;;;;;;;4.23;2.63;;;8.30;99.90;;;;;;5025197;28;20418;-67
2024/02/23 08:13:59;;;;;;;6.40;2.07;;;8.50;99.90;;;;;;5020112;28;20211;-67
2024/02/23 08:16:25;;;;;;;5.13;2.50;;;8.50;99.90;;;;;;5020356;28;20196;-67
2024/02/23 08:18:51;;;;;;;4.47;2.30;;;8.70;99.90;;;;;;5023202;28;20497;-67
2024/02/23 08:21:16;;;;;;;5.97;1.97;;;8.90;99.90;;;;;;5019854;28;20432;-67
2024/02/23 08:23:42;;;;;;;2.77;2.07;;;8.80;99.90;;;;;;5018066;28;20238;-67
2024/02/23 08:26:09;;;;;;;3.30;2.10;;;8.90;99.90;;;;;;5018778;28;20195;-68
2024/02/23 08:28:35;;;;;;;4.10;1.97;;;9.10;99.90;;;;;;5020491;28;20203;-68
2024/02/23 08:31:01;;;;;;;7.30;2.23;;;9.30;99.90;;;;;;5021935;28;20423;-69
2024/02/23 08:33:26;;;;;;;3.43;2.03;;;9.30;99.90;;;;;;5017429;28;20177;-67
2024/02/23 08:35:52;;;;;;;3.53;1.90;;;9.40;99.90;;;;;;5017064;28;20188;-67
2024/02/23 08:38:18;;;;;;;2.63;1.70;;;9.50;99.90;;;;;;5021127;28;20192;-67
2024/02/23 08:40:45;;;;;;;3.37;1.97;;;9.40;99.90;;;;;;5019627;28;20217;-66
2024/02/23 08:43:11;;;;;;;7.83;1.73;;;9.40;99.90;;;;;;5020750;28;20851;-68
2024/02/23 08:45:36;;;;;;;4.10;2.10;;;9.30;99.90;;;;;;5020034;28;20987;-67
2024/02/23 08:48:03;;;;;;;5.80;1.90;;;9.30;99.90;;;;;;5021008;28;20427;-66
2024/02/23 08:50:29;;;;;;;4.63;1.93;;;9.30;99.90;;;;;;5018736;28;20199;-66
2024/02/23 08:52:54;;;;;;;7.43;2.70;;;9.40;99.90;;;;;;5021795;28;20872;-66
2024/02/23 08:55:21;;;;;;;4.03;2.60;;;9.50;99.90;;;;;;5016089;28;20205;-66
2024/02/23 08:57:47;;;;;;;8.30;2.30;;;9.40;99.90;;;;;;5020131;28;20261;-66
2024/02/23 09:00:14;;;;;;;6.30;2.20;;;9.40;99.90;;;;;;5016069;28;20558;-66
2024/02/23 09:02:41;;;;;;;6.00;2.80;;;9.40;99.90;;;;;;5018008;28;20185;-66
2024/02/23 09:05:07;;;;;;;3.93;1.80;;;9.60;99.90;;;;;;5019321;28;20435;-66
2024/02/23 09:07:33;;;;;;;4.10;2.00;;;9.60;99.90;;;;;;5014854;28;20472;-65
2024/02/23 09:09:58;;;;;;;4.93;1.93;;;9.60;99.90;;;;;;5015051;28;20624;-67
2024/02/23 09:12:24;;;;;;;5.00;1.97;;;9.60;99.90;;;;;;5008420;28;20207;-66
2024/02/23 09:14:49;;;;;;;3.40;1.80;;;9.60;99.90;;;;;;5016879;28;20212;-66
2024/02/23 09:17:15;;;;;;;6.67;1.93;;;9.60;99.90;;;;;;5013187;28;20699;-66
2024/02/23 09:19:40;;;;;;;3.70;1.60;;;9.60;99.90;;;;;;5012796;28;20399;-66
2024/02/23 09:22:07;;;;;;;3.80;2.00;;;9.70;99.90;;;;;;5015873;28;20228;-66
2024/02/23 09:24:33;;;;;;;6.03;2.17;;;9.60;99.90;;;;;;5014733;28;20207;-66
2024/02/23 09:26:58;;;;;;;7.97;1.97;;;9.70;99.90;;;;;;5021667;28;20419;-66
2024/02/23 09:29:24;;;;;;;5.60;2.07;;;9.70;99.90;;;;;;5012526;28;20441;-66
2024/02/23 09:31:49;;;;;;;5.07;1.93;;;9.70;99.90;;;;;;5015172;28;20710;-66
2024/02/23 09:34:15;;;;;;;7.03;2.10;;;9.80;99.90;;;;;;5010577;28;20196;-66
2024/02/23 09:36:41;;;;;;;3.87;2.40;;;9.80;99.90;;;;;;5015343;28;20208;-66
2024/02/23 09:39:06;;;;;;;5.20;2.00;;;9.80;99.90;;;;;;5011213;28;20197;-66
2024/02/23 09:41:34;;;;;;;6.90;2.17;;;9.80;99.90;;;;;;5011911;28;20191;-66
2024/02/23 09:44:01;;;;;;;3.00;1.70;;;9.80;99.90;;;;;;5015332;28;20207;-66
2024/02/23 09:46:27;;;;;;;8.77;3.40;;;9.80;99.90;;;;;;5016244;28;20408;-66
2024/02/23 09:48:54;;;;;;;7.20;2.30;;;9.80;99.90;;;;;;5017289;28;20429;-66
2024/02/23 09:51:23;;;;;;;7.10;2.20;;;9.70;99.90;;;;;;5014412;28;20435;-67
2024/02/23 09:53:50;;;;;;;5.50;1.87;;;9.80;99.90;;;;;;5013176;28;20508;-66
2024/02/23 09:56:17;;;;;;;6.23;2.30;;;9.70;99.90;;;;;;5017091;28;20459;-66
2024/02/23 09:58:44;;;;;;;4.23;2.10;;;9.70;99.90;;;;;;5011735;28;20895;-66
2024/02/23 10:01:11;;;;;;;2.77;2.07;;;9.70;99.90;;;;;;5013428;28;20416;-66
2024/02/23 10:03:38;;;;;;;8.23;2.60;;;9.60;99.90;;;;;;5009059;28;20977;-66
2024/02/23 10:06:04;;;;;;;4.97;2.00;;;9.60;99.90;;;;;;5014869;28;20416;-67
2024/02/23 10:08:30;;;;;;;5.33;3.03;;;9.60;99.90;;;;;;5014727;28;20419;-68
2024/02/23 10:10:56;;;;;;;3.87;1.97;;;9.60;99.90;;;;;;5008585;28;20426;-67
2024/02/23 10:13:26;;;;;;;10.10;2.40;;;9.60;99.90;;;;;;5015066;28;20506;-67
2024/02/23 10:15:53;;;;;;;5.70;2.40;;;9.70;99.90;;;;;;5017654;28;20455;-68
2024/02/23 10:18:19;;;;;;;5.13;2.13;;;9.70;99.90;;;;;;5015760;28;20430;-67
2024/02/23 10:20:45;;;;;;;2.30;1.67;;;9.80;99.90;;;;;;5013445;28;20463;-68
2024/02/23 10:23:11;;;;;;;4.43;2.33;;;9.90;99.90;;;;;;5011832;28;20685;-68
2024/02/23 10:25:37;;;;;;;4.20;1.70;;;9.90;99.90;;;;;;5009165;28;20455;-67
2024/02/23 10:28:05;;;;;;;5.90;2.10;;;10.00;99.90;;;;;;5009684;28;20922;-67
2024/02/23 10:30:31;;;;;;;4.73;1.93;;;10.10;99.90;;;;;;5010635;28;20520;-65
2024/02/23 10:32:57;;;;;;;5.87;2.23;;;10.20;99.90;;;;;;5015872;28;20511;-65
2024/02/23 10:35:24;;;;;;;4.20;2.13;;;10.20;99.90;;;;;;5011838;28;20343;-66
2024/02/23 10:37:52;;;;;;;4.47;2.00;;;10.20;99.90;;;;;;5014184;28;20412;-66
2024/02/23 10:40:18;;;;;;;6.50;2.13;;;10.30;99.90;;;;;;5019051;28;20495;-66
2024/02/23 10:42:47;;;;;;;5.40;1.90;;;10.40;99.90;;;;;;5014704;28;20441;-66
2024/02/23 10:45:15;;;;;;;7.50;1.70;;;10.50;99.90;;;;;;5012472;28;20524;-67
2024/02/23 10:47:42;;;;;;;8.13;2.57;;;10.50;99.90;;;;;;5012743;28;21000;-68
2024/02/23 10:50:08;;;;;;;5.40;2.03;;;10.60;99.90;;;;;;5015694;28;20803;-68
2024/02/23 10:52:35;;;;;;;5.50;1.80;;;10.60;99.90;;;;;;5012679;28;20477;-67
2024/02/23 10:55:04;;;;;;;6.40;2.50;;;10.50;99.90;;;;;;5017237;28;20457;-66
2024/02/23 10:57:35;;;;;;;4.13;1.60;;;10.40;99.90;;;;;;5011235;28;20514;-66
2024/02/23 11:00:01;;;;;;;7.27;2.17;;;10.40;99.90;;;;;;5013409;28;20816;-66
2024/02/23 11:02:31;;;;;;;5.23;1.83;;;10.40;99.90;;;;;;5012067;28;20427;-66
2024/02/23 11:04:59;;;;;;;5.47;2.23;;;10.40;99.90;;;;;;5009202;28;20436;-66
2024/02/23 11:07:28;;;;;;;4.87;2.03;;;10.40;99.90;;;;;;5009841;28;20433;-67
2024/02/23 11:09:58;;;;;;;3.73;2.00;;;10.60;99.90;;;;;;5011190;28;20936;-66
2024/02/23 11:12:29;;;;;;;8.07;2.03;;;10.50;99.90;;;;;;5013626;28;20415;-66
2024/02/23 11:14:59;;;;;;;8.60;2.33;;;10.70;99.90;;;;;;5013281;28;20849;-66
2024/02/23 11:17:38;;;;;;;5.37;1.97;;;10.70;99.90;;;;;;5013299;28;20443;-66
2024/02/23 11:20:04;;;;;;;5.17;2.27;;;10.70;99.90;;;;;;5013761;28;20529;-67
2024/02/23 11:22:32;;;;;;;4.30;1.70;;;10.90;99.90;;;;;;5010517;28;20470;-67
2024/02/23 11:25:03;;;;;;;6.93;1.83;;;11.10;99.90;;;;;;5014622;28;20467;-67
2024/02/23 11:27:33;;;;;;;4.00;2.27;;;11.10;99.90;;;;;;5006644;28;20436;-67
2024/02/23 11:30:08;;;;;;;3.37;2.00;;;11.20;99.90;;;;;;5008586;28;20774;-68
2024/02/23 11:32:46;;;;;;;4.53;2.43;;;11.20;99.90;;;;;;5011068;28;20431;-68
2024/02/23 11:35:12;;;;;;;3.10;1.77;;;11.30;99.90;;;;;;5014531;28;20442;-69
2024/02/23 11:37:46;;;;;;;6.87;2.37;;;11.30;99.90;;;;;;5018980;28;20438;-68
2024/02/23 11:40:13;;;;;;;7.47;2.30;;;11.20;99.90;;;;;;5016219;28;20474;-66
2024/02/23 11:42:42;;;;;;;6.10;2.03;;;11.20;99.90;;;;;;5013585;28;20964;-66
2024/02/23 11:45:08;;;;;;;6.37;1.90;;;11.40;99.90;;;;;;5013434;28;20778;-66
2024/02/23 11:47:34;;;;;;;3.10;1.90;;;11.50;99.90;;;;;;5010384;28;20424;-66
2024/02/23 11:49:59;;;;;;;5.73;2.17;;;11.70;99.90;;;;;;5015351;28;20422;-66
2024/02/23 11:52:25;;;;;;;6.40;2.10;;;11.80;99.90;;;;;;5009831;28;20744;-66
2024/02/23 11:54:51;;;;;;;3.83;2.00;;;11.90;99.90;;;;;;5011574;28;20212;-66
2024/02/23 11:57:16;;;;;;;9.07;2.57;;;12.00;99.90;;;;;;5011183;28;20422;-66
2024/02/23 11:59:42;;;;;;;5.40;2.77;;;12.00;99.90;;;;;;5012685;28;20565;-69
2024/02/23 12:02:08;;;;;;;8.80;2.60;;;12.10;99.90;;;;;;5009102;28;20650;-68
2024/02/23 12:04:34;;;;;;;4.50;2.33;;;12.50;99.90;;;;;;5012330;28;20292;-68
2024/02/23 12:07:00;;;;;;;6.40;2.00;;;12.30;99.90;;;;;;5014067;28;20221;-68
2024/02/23 12:09:26;;;;;;;4.80;2.07;;;12.40;99.90;;;;;;5012574;28;20909;-68
2024/02/23 12:11:52;;;;;;;7.17;2.40;;;12.30;99.90;;;;;;5011681;28;20442;-68
2024/02/23 12:14:17;;;;;;;5.60;2.30;;;12.30;99.90;;;;;;5016014;28;20216;-68
2024/02/23 12:16:43;;;;;;;8.00;2.93;;;12.30;99.90;;;;;;5014325;28;20286;-67
2024/02/23 12:19:09;;;;;;;4.93;2.57;;;12.40;99.90;;;;;;5012413;28;20710;-67
2024/02/23 12:21:38;;;;;;;8.00;2.60;;;12.40;99.90;;;;;;5013745;28;20958;-67
2024/02/23 12:24:07;;;;;;;7.00;1.97;;;12.80;99.90;;;;;;5016935;28;20204;-67
2024/02/23 12:26:33;;;;;;;4.80;2.30;;;14.30;99.90;;;;;;5010602;28;20428;-67
2024/02/23 12:29:03;;;;;;;7.30;2.33;;;14.80;99.90;;;;;;5009254;28;20439;-67
2024/02/23 12:31:29;;;;;;;5.83;2.93;;;14.10;99.90;;;;;;5009840;28;20272;-68
2024/02/23 12:33:57;;;;;;;6.70;2.80;;;15.20;99.90;;;;;;5012471;28;21347;-67
2024/02/23 12:36:23;;;;;;;4.40;2.40;;;16.90;99.90;;;;;;5016809;28;20418;-68
2024/02/23 12:38:48;;;;;;;4.20;2.20;;;17.90;96.70;;;;;;5017912;28;20893;-67
2024/02/23 12:41:14;;;;;;;4.50;2.20;;;17.10;93.90;;;;;;5012301;28;20189;-67
2024/02/23 12:43:40;;;;;;;6.20;2.90;;;16.20;93.60;;;;;;5012172;28;20197;-68
2024/02/23 12:46:08;;;;;;;4.30;2.23;;;15.60;95.20;;;;;;5011124;28;20216;-68
2024/02/23 12:48:33;;;;;;;3.40;2.47;;;15.40;95.00;;;;;;5016329;28;20315;-68
2024/02/23 12:50:59;;;;;;;4.63;2.47;;;14.90;94.80;;;;;;5015491;28;20920;-68